Valmiera, Latvia
Current Conditions -  °F | °C
As of 11:50 PM on Saturday 25 Oct 2014 (Local Time) from EVRA Reporting Station
Scattered Clouds Scattered Clouds  
Wind Chill: 24°   Ceiling: Unl
Heat Index: 34°   Visibility: 6mi
Dew Point: 18°   Wind: 14mph
Humidity: 52%   Direction: 170°S
Pressure: 30.3"   Gusts: NA
Location:  57.55°N, 25.42°E
Report Text: EVRA 252050Z 17012KT 9999 SCT026 01/M08 Q1026 R18/090095 NOSIG
Loading
Personal Weather Stations






























Interactive Weather Map
Tropical Storm Tracking
New forecast layout! Learn more

10-Day Weather Forecast

Advertisements
Track Severe Weather on mobile